Time;durP1;ratioP1;P1;durP2;ratioP2;P2;SDS_P1;SDS_P2;PMS_P1;PMS_P2;Temp;Humidity;BMP_temperature;BMP_pressure;BME280_temperature;BME280_humidity;BME280_pressure;Samples;Min_cycle;Max_cycle;Signal;HPM_P1;HPM_P2
2023/06/28 00:00:05;;;;;;;2.07;0.83;;;;;;;17.95;52.29;101519.22;4975726;28;97222;-82
2023/06/28 00:02:36;;;;;;;2.20;1.00;;;;;;;17.85;52.30;101537.56;4995588;28;98591;-83
2023/06/28 00:05:03;;;;;;;1.80;0.87;;;;;;;17.80;52.33;101518.88;4996794;28;96947;-83
2023/06/28 00:07:29;;;;;;;1.20;0.90;;;;;;;17.76;52.67;101496.16;4976332;28;96770;-82
2023/06/28 00:09:54;;;;;;;1.20;1.10;;;;;;;17.78;52.60;101490.81;4975560;28;97220;-84
2023/06/28 00:12:21;;;;;;;2.10;0.90;;;;;;;17.76;52.83;101537.91;4993682;28;97394;-83
2023/06/28 00:14:46;;;;;;;4.23;1.10;;;;;;;17.79;52.79;101536.88;4987856;28;97526;-83
2023/06/28 00:17:12;;;;;;;1.73;1.03;;;;;;;17.75;52.85;101524.53;4991935;28;96736;-83
2023/06/28 00:19:47;;;;;;;3.30;0.80;;;;;;;17.78;52.90;101520.69;4990825;28;96744;-82
2023/06/28 00:22:14;;;;;;;1.23;0.80;;;;;;;17.69;52.88;101507.13;4993450;28;96756;-83
2023/06/28 00:24:39;;;;;;;2.93;0.90;;;;;;;17.71;53.06;101529.63;4980596;28;98690;-83
2023/06/28 00:27:05;;;;;;;1.83;1.03;;;;;;;17.71;53.05;101496.97;4993208;28;97416;-84
2023/06/28 00:29:30;;;;;;;2.70;1.30;;;;;;;17.70;53.14;101517.72;4980328;28;96995;-83
2023/06/28 00:31:55;;;;;;;2.60;1.00;;;;;;;17.63;53.20;101495.28;4973622;28;99734;-84
2023/06/28 00:34:21;;;;;;;3.20;0.93;;;;;;;17.55;53.15;101499.91;4977608;28;100358;-83
2023/06/28 00:36:47;;;;;;;3.27;0.90;;;;;;;17.48;53.41;101528.28;4994461;28;97116;-83
2023/06/28 00:39:12;;;;;;;0.80;0.80;;;;;;;17.49;53.40;101510.31;4974412;28;96758;-83
2023/06/28 00:41:37;;;;;;;1.00;0.80;;;;;;;17.45;53.49;101512.63;4974271;28;100874;-82
2023/06/28 00:44:03;;;;;;;0.87;0.80;;;;;;;17.51;53.39;101510.59;4976761;28;99150;-82
2023/06/28 00:46:29;;;;;;;0.83;0.63;;;;;;;17.49;53.47;101516.66;4970984;28;96730;-83
2023/06/28 00:48:54;;;;;;;3.80;1.07;;;;;;;17.46;53.63;101503.75;4990750;28;96907;-83
2023/06/28 00:51:19;;;;;;;1.33;1.00;;;;;;;17.44;53.63;101497.19;4980548;28;102346;-82
2023/06/28 00:53:45;;;;;;;2.70;1.60;;;;;;;17.38;53.44;101504.84;4991667;28;97780;-84
2023/06/28 00:56:11;;;;;;;1.83;0.90;;;;;;;17.32;53.86;101518.78;4972856;28;97376;-83
2023/06/28 00:58:36;;;;;;;2.20;0.90;;;;;;;17.29;53.96;101500.38;4989499;28;97177;-83
2023/06/28 01:01:01;;;;;;;1.50;0.80;;;;;;;17.27;53.94;101496.59;4994657;28;97955;-82
2023/06/28 01:03:27;;;;;;;1.00;0.80;;;;;;;17.29;53.88;101511.50;4964322;28;100767;-83
2023/06/28 01:05:57;;;;;;;3.13;1.20;;;;;;;17.17;53.90;101508.03;4992217;28;96745;-84
2023/06/28 01:08:23;;;;;;;1.23;0.97;;;;;;;17.19;54.07;101521.44;4963196;28;98048;-84
2023/06/28 01:10:49;;;;;;;1.40;1.10;;;;;;;17.17;54.14;101521.19;4980847;28;99602;-84
2023/06/28 01:13:16;;;;;;;1.07;0.97;;;;;;;17.13;54.29;101521.47;4974688;28;99479;-83
2023/06/28 01:15:41;;;;;;;2.93;1.00;;;;;;;17.10;54.36;101507.88;4983202;28;97159;-83
2023/06/28 01:18:06;;;;;;;3.27;1.23;;;;;;;17.10;54.54;101511.38;4992376;28;97560;-83
2023/06/28 01:20:32;;;;;;;2.00;0.80;;;;;;;17.09;54.45;101514.69;4985584;28;97537;-83
2023/06/28 01:22:57;;;;;;;1.20;0.90;;;;;;;17.09;54.52;101511.91;4987930;28;97336;-83
2023/06/28 01:25:23;;;;;;;1.17;1.07;;;;;;;17.11;54.45;101517.69;4989142;28;97476;-83
2023/06/28 01:27:49;;;;;;;4.30;1.30;;;;;;;17.12;54.70;101513.66;4991938;28;96901;-83
2023/06/28 01:30:15;;;;;;;2.40;0.93;;;;;;;17.10;54.53;101518.97;4992590;28;97462;-83
2023/06/28 01:32:45;;;;;;;1.10;1.00;;;;;;;17.07;54.68;101525.56;4973004;28;99372;-82
2023/06/28 01:35:14;;;;;;;1.33;1.00;;;;;;;17.05;54.66;101519.78;4976181;28;96892;-83
2023/06/28 01:37:40;;;;;;;1.63;0.90;;;;;;;17.02;54.72;101526.34;4972269;28;97244;-83
2023/06/28 01:40:09;;;;;;;0.80;0.80;;;;;;;16.96;54.64;101520.84;4994185;28;97692;-84
2023/06/28 01:42:35;;;;;;;1.10;1.00;;;;;;;16.90;54.76;101522.16;4994499;28;101965;-84
2023/06/28 01:45:01;;;;;;;1.10;1.00;;;;;;;16.88;54.76;101524.69;4990021;28;97214;-84
2023/06/28 01:47:26;;;;;;;1.73;0.90;;;;;;;16.82;54.76;101521.19;4994753;28;97525;-83
2023/06/28 01:49:52;;;;;;;1.43;0.80;;;;;;;16.81;54.99;101553.78;4965806;28;100575;-83
2023/06/28 01:52:17;;;;;;;5.40;0.90;;;;;;;16.75;55.14;101566.97;4971191;28;99064;-83
2023/06/28 01:54:43;;;;;;;1.10;0.60;;;;;;;16.81;55.07;101526.00;4991027;28;97371;-83
2023/06/28 01:57:08;;;;;;;0.90;0.77;;;;;;;16.76;55.16;101537.91;4998392;28;97477;-84
2023/06/28 01:59:34;;;;;;;3.30;1.03;;;;;;;16.74;55.16;101546.00;4992103;28;97234;-83
2023/06/28 02:01:59;;;;;;;2.17;0.83;;;;;;;16.71;55.28;101540.72;4991274;28;96670;-83
2023/06/28 02:04:25;;;;;;;1.00;0.90;;;;;;;16.71;55.38;101549.06;4987650;28;97067;-83
2023/06/28 02:06:50;;;;;;;2.97;1.10;;;;;;;16.70;55.43;101539.94;4973055;28;97253;-83
2023/06/28 02:09:15;;;;;;;1.50;0.87;;;;;;;16.67;55.31;101540.97;4988984;28;97056;-83
2023/06/28 02:11:41;;;;;;;2.40;1.43;;;;;;;16.66;55.39;101528.34;4987414;28;96828;-83
2023/06/28 02:14:06;;;;;;;3.43;1.50;;;;;;;16.67;55.62;101549.31;4992680;28;97182;-83
2023/06/28 02:16:31;;;;;;;2.50;0.90;;;;;;;16.67;55.44;101523.53;4976836;28;97910;-83
2023/06/28 02:19:00;;;;;;;3.30;1.50;;;;;;;16.68;55.43;101578.63;4988833;28;97114;-82
2023/06/28 02:21:25;;;;;;;0.87;0.87;;;;;;;16.58;55.49;101540.53;4972954;28;99189;-83
2023/06/28 02:23:51;;;;;;;1.50;0.90;;;;;;;16.56;55.53;101563.25;4986880;28;97136;-83
2023/06/28 02:26:16;;;;;;;1.80;1.10;;;;;;;16.57;55.68;101539.00;4979235;28;97417;-82
2023/06/28 02:28:42;;;;;;;4.73;1.23;;;;;;;16.54;55.66;101545.56;4975860;28;99554;-82
2023/06/28 02:31:07;;;;;;;2.50;1.30;;;;;;;16.55;55.56;101527.66;4975954;28;98834;-84
2023/06/28 02:33:32;;;;;;;3.50;1.30;;;;;;;16.49;55.61;101539.50;4972928;28;97405;-83
2023/06/28 02:35:58;;;;;;;1.30;0.90;;;;;;;16.44;55.82;101540.31;4987931;28;96926;-83
2023/06/28 02:38:23;;;;;;;2.17;1.17;;;;;;;16.46;55.85;101535.00;4971407;28;99826;-83
2023/06/28 02:40:48;;;;;;;3.23;1.20;;;;;;;16.44;55.93;101517.31;4988016;28;103473;-83
2023/06/28 02:43:14;;;;;;;4.10;1.57;;;;;;;16.45;55.89;101522.34;4991185;28;96881;-83
2023/06/28 02:45:39;;;;;;;1.30;1.20;;;;;;;16.35;55.98;101521.16;4979909;28;96987;-83
2023/06/28 02:48:05;;;;;;;1.80;1.40;;;;;;;16.40;56.01;101516.84;4989482;28;98033;-83
2023/06/28 02:50:30;;;;;;;1.37;1.27;;;;;;;16.37;56.10;101535.28;4989633;28;97930;-83
2023/06/28 02:52:55;;;;;;;4.40;1.23;;;;;;;16.36;56.09;101535.78;4990876;28;97433;-83
2023/06/28 02:55:21;;;;;;;6.47;1.93;;;;;;;16.44;56.12;101522.88;4991295;28;97287;-83
2023/06/28 02:57:46;;;;;;;1.47;1.20;;;;;;;16.42;56.08;101551.16;4989026;28;97961;-83
2023/06/28 03:00:12;;;;;;;2.07;0.90;;;;;;;16.43;56.12;101540.78;4975227;28;101037;-81
2023/06/28 03:16:26;;;;;;;4.20;1.20;;;;;;;16.27;56.75;101570.13;4966723;28;97682;-83
2023/06/28 03:18:57;;;;;;;1.70;1.03;;;;;;;16.17;56.26;101571.69;4980648;28;101044;-82
2023/06/28 03:24:18;;;;;;;1.70;1.20;;;;;;;16.20;56.89;101540.16;4980323;28;97446;-83
2023/06/28 03:27:07;;;;;;;2.50;1.37;;;;;;;16.22;56.77;101559.06;4978795;28;97149;-80
2023/06/28 03:30:17;;;;;;;1.83;1.30;;;;;;;16.27;57.36;101536.81;4989537;28;97125;-84
2023/06/28 03:33:40;;;;;;;3.10;1.27;;;;;;;16.21;57.23;101521.44;4928969;28;97983;-84
2023/06/28 03:36:24;;;;;;;1.87;1.10;;;;;;;16.14;56.45;101578.25;4989491;28;100263;-83
2023/06/28 03:42:06;;;;;;;2.10;1.23;;;;;;;16.18;57.06;101562.09;4951347;28;97583;-82
2023/06/28 03:44:49;;;;;;;1.63;1.13;;;;;;;16.17;57.51;101566.13;4966579;28;101413;-83
2023/06/28 03:50:47;;;;;;;;;;;;;;;;;;;;;
2023/06/28 03:53:50;;;;;;;1.40;1.30;;;;;;;16.23;57.82;101564.09;4980164;28;117036;-83
2023/06/28 03:57:12;;;;;;;;;;;;;;;;;;;;;
2023/06/28 03:59:46;;;;;;;3.27;1.50;;;;;;;16.30;57.28;101548.94;5033265;22;127012;-83
2023/06/28 04:08:36;;;;;;;1.93;1.63;;;;;;;16.35;57.96;101523.16;4996293;28;97886;-83
2023/06/28 04:11:44;;;;;;;;;;;;;;;;;;;;;
2023/06/28 04:15:07;;;;;;;;;;;;;;;;;;;;;
2023/06/28 04:22:18;;;;;;;1.53;1.43;;;;;;;16.25;57.87;101578.22;4874432;28;98288;-84
2023/06/28 04:24:59;;;;;;;1.30;1.20;;;;;;;16.31;56.98;101544.91;4819303;29;99679;-83
2023/06/28 04:30:31;;;;;;;4.07;2.13;;;;;;;16.35;57.23;101565.59;5006018;22;97121;-82
2023/06/28 04:33:07;;;;;;;1.30;1.20;;;;;;;16.33;57.82;101536.81;4986558;28;99658;-84
2023/06/28 04:35:38;;;;;;;3.83;1.40;;;;;;;16.38;57.11;101536.03;4990453;28;100634;-81
2023/06/28 04:38:13;;;;;;;2.80;1.70;;;;;;;16.44;57.20;101581.97;4991809;28;97051;-85
2023/06/28 04:40:41;;;;;;;3.40;1.90;;;;;;;16.45;57.42;101583.47;4988066;28;97081;-84
2023/06/28 04:43:24;;;;;;;1.27;1.17;;;;;;;16.46;58.34;101564.78;4982117;28;99568;-85
2023/06/28 04:45:49;;;;;;;2.50;1.63;;;;;;;16.52;57.35;101526.66;4988516;28;99198;-80
2023/06/28 04:48:15;;;;;;;4.57;2.00;;;;;;;16.67;57.41;101565.22;4985566;28;96900;-83
2023/06/28 04:51:01;;;;;;;;;;;;;;;;;;;;;
2023/06/28 04:53:27;;;;;;;1.73;1.57;;;;;;;16.72;57.44;101578.34;4997068;28;127059;-82
2023/06/28 04:55:54;;;;;;;4.50;1.90;;;;;;;16.69;57.36;101574.56;4999157;28;98884;-82
2023/06/28 04:58:21;;;;;;;2.80;1.73;;;;;;;16.78;57.57;101546.47;4980815;28;97277;-82
2023/06/28 05:01:01;;;;;;;5.30;2.13;;;;;;;16.84;57.78;101543.69;5001402;28;97287;-83
2023/06/28 05:03:50;;;;;;;3.50;1.97;;;;;;;16.95;58.73;101577.69;5000670;28;99974;-83
2023/06/28 05:06:16;;;;;;;2.80;1.80;;;;;;;16.97;57.62;101574.44;4999234;28;97363;-79
2023/06/28 05:08:41;;;;;;;2.40;1.93;;;;;;;17.03;57.85;101578.69;4996690;28;97242;-82
2023/06/28 05:11:07;;;;;;;1.90;1.73;;;;;;;17.09;57.87;101548.81;4999372;28;96791;-83
2023/06/28 05:13:35;;;;;;;2.30;1.50;;;;;;;17.07;57.87;101558.94;4996646;28;96920;-83
2023/06/28 05:16:02;;;;;;;3.10;1.70;;;;;;;17.15;57.84;101569.00;4998040;28;97107;-82
2023/06/28 05:18:28;;;;;;;2.60;2.20;;;;;;;17.30;57.83;101532.47;4999602;28;96720;-83
2023/06/28 05:21:12;;;;;;;3.23;2.00;;;;;;;17.29;58.80;101553.22;4999122;28;97098;-83
2023/06/28 05:23:42;;;;;;;1.93;1.63;;;;;;;17.31;57.91;101558.25;4980612;28;99389;-80
2023/06/28 05:26:13;;;;;;;5.50;2.27;;;;;;;17.37;57.88;101526.34;4982798;28;100585;-84
2023/06/28 05:28:59;;;;;;;;;;;;;;;;;;;;;
2023/06/28 05:31:24;;;;;;;3.60;1.47;;;;;;;17.52;57.90;101518.41;4997866;28;117125;-82
2023/06/28 05:33:57;;;;;;;1.90;1.77;;;;;;;17.58;58.58;101566.41;4989602;28;100057;-83
2023/06/28 05:36:25;;;;;;;3.67;2.23;;;;;;;17.62;57.98;101575.25;5000790;28;98702;-83
2023/06/28 05:38:52;;;;;;;5.30;2.53;;;;;;;17.68;58.10;101548.13;4999266;28;97360;-83
2023/06/28 05:41:18;;;;;;;2.40;2.20;;;;;;;17.73;58.09;101603.00;4997892;28;96775;-81
2023/06/28 05:47:21;;;;;;;5.80;2.70;;;;;;;17.84;57.88;101563.88;4932036;28;97036;-81
2023/06/28 05:49:51;;;;;;;9.70;2.60;;;;;;;17.94;58.08;101581.00;4985154;28;96963;-83
2023/06/28 05:52:19;;;;;;;2.37;2.17;;;;;;;18.08;57.94;101532.53;4981112;28;97252;-82
2023/06/28 05:54:44;;;;;;;3.43;2.37;;;;;;;18.16;57.83;101535.47;4987417;28;100393;-83
2023/06/28 05:57:12;;;;;;;2.60;1.90;;;;;;;18.21;57.98;101565.31;4997913;28;97867;-83
2023/06/28 05:59:38;;;;;;;3.63;2.10;;;;;;;18.26;58.06;101578.41;4984148;28;96601;-84
2023/06/28 06:02:06;;;;;;;6.33;2.47;;;;;;;18.34;57.95;101543.13;4999544;28;97055;-85
2023/06/28 06:04:40;;;;;;;4.10;2.13;;;;;;;18.51;58.43;101549.25;4996318;28;99131;-84
2023/06/28 06:07:11;;;;;;;4.67;2.10;;;;;;;18.54;58.00;101551.00;4983432;28;99198;-85
2023/06/28 06:10:08;;;;;;;2.77;1.60;;;;;;;18.60;58.27;101538.50;4987676;28;97037;-84
2023/06/28 06:12:33;;;;;;;2.03;1.27;;;;;;;18.70;57.68;101566.75;4982915;28;97620;-83
2023/06/28 06:15:01;;;;;;;7.97;2.70;;;;;;;18.89;57.87;101545.22;4983282;28;100412;-84
2023/06/28 06:17:27;;;;;;;2.27;1.80;;;;;;;18.91;57.72;101536.31;4989561;28;101199;-82
2023/06/28 06:19:52;;;;;;;3.40;1.80;;;;;;;18.98;57.71;101525.28;5000294;28;96824;-83
2023/06/28 06:22:17;;;;;;;4.10;2.27;;;;;;;19.02;57.57;101533.34;4998861;28;97631;-83
2023/06/28 06:24:46;;;;;;;4.90;2.20;;;;;;;19.09;57.65;101530.69;4986950;28;99275;-84
2023/06/28 06:27:11;;;;;;;3.53;1.77;;;;;;;19.20;57.61;101524.94;4998052;28;97183;-82
2023/06/28 06:29:36;;;;;;;1.90;1.60;;;;;;;19.24;57.43;101525.38;4988990;28;97806;-83
2023/06/28 06:32:02;;;;;;;6.63;1.90;;;;;;;19.33;57.41;101527.03;4999624;28;97457;-82
2023/06/28 06:34:27;;;;;;;2.23;1.60;;;;;;;19.38;57.43;101524.19;4997168;28;99053;-83
2023/06/28 06:36:54;;;;;;;2.70;1.70;;;;;;;19.43;57.73;101528.16;5007556;28;96815;-83
2023/06/28 06:39:20;;;;;;;3.80;1.93;;;;;;;19.51;57.54;101525.47;4991541;28;97103;-81
2023/06/28 06:41:45;;;;;;;11.37;1.73;;;;;;;19.54;57.70;101541.94;4995801;28;96862;-81
2023/06/28 06:44:10;;;;;;;3.43;1.93;;;;;;;19.58;57.49;101534.00;5005297;28;97397;-83
2023/06/28 06:46:38;;;;;;;5.93;2.50;;;;;;;19.65;57.32;101525.00;5001876;28;98950;-84
2023/06/28 06:49:03;;;;;;;2.50;1.70;;;;;;;19.76;57.64;101551.94;5001034;28;96885;-83
2023/06/28 06:51:29;;;;;;;2.93;1.37;;;;;;;19.85;57.52;101538.34;4992185;28;97999;-83
2023/06/28 06:54:00;;;;;;;2.50;1.53;;;;;;;19.88;57.37;101545.63;4989550;28;98594;-84
2023/06/28 06:56:28;;;;;;;2.93;1.80;;;;;;;19.92;57.51;101548.13;5001089;28;97489;-83
2023/06/28 06:58:53;;;;;;;1.90;1.30;;;;;;;20.00;57.06;101529.41;4998348;28;97275;-82
2023/06/28 07:01:18;;;;;;;3.70;1.47;;;;;;;20.08;56.95;101588.94;5005539;28;97620;-83
2023/06/28 07:03:44;;;;;;;1.30;1.00;;;;;;;20.14;56.88;101595.19;5002168;28;102270;-84
2023/06/28 07:06:09;;;;;;;2.30;1.20;;;;;;;20.16;56.88;101584.22;4992359;28;99759;-83
2023/06/28 07:08:35;;;;;;;2.80;1.30;;;;;;;20.30;56.64;101596.94;5003406;28;97335;-85
2023/06/28 07:11:01;;;;;;;6.33;1.73;;;;;;;20.27;56.36;101589.63;5002974;28;96996;-81
2023/06/28 07:13:28;;;;;;;4.13;1.50;;;;;;;20.32;56.33;101597.16;4994613;28;100201;-83
2023/06/28 07:15:54;;;;;;;5.40;1.57;;;;;;;20.39;56.28;101549.00;4991292;28;100102;-82
2023/06/28 07:18:41;;;;;;;1.80;1.00;;;;;;;20.41;56.12;101591.13;4986240;28;97798;-84
2023/06/28 07:21:06;;;;;;;3.73;1.27;;;;;;;20.59;56.05;101583.91;4984036;28;96873;-84
2023/06/28 07:23:34;;;;;;;2.63;1.13;;;;;;;20.71;55.71;101610.34;4988385;28;100327;-83
2023/06/28 07:25:59;;;;;;;2.30;1.33;;;;;;;20.81;55.52;101563.88;5002050;28;97419;-83
2023/06/28 07:28:27;;;;;;;2.50;1.30;;;;;;;20.90;55.18;101594.19;5004726;28;97462;-83
2023/06/28 07:31:00;;;;;;;3.00;1.30;;;;;;;20.99;54.98;101562.19;5002377;28;97118;-83
2023/06/28 07:33:58;;;;;;;1.50;1.10;;;;;;;21.10;54.47;101553.56;5000935;28;97455;-84
2023/06/28 07:36:23;;;;;;;2.30;0.90;;;;;;;21.15;54.43;101572.28;4987398;28;97054;-82
2023/06/28 07:38:50;;;;;;;2.20;1.03;;;;;;;21.19;54.21;101592.28;5005928;28;97069;-82
2023/06/28 07:41:21;;;;;;;1.40;1.07;;;;;;;21.19;54.21;101547.50;4991069;28;99455;-84
2023/06/28 07:43:47;;;;;;;2.20;1.00;;;;;;;21.33;54.01;101602.13;4988715;28;99593;-82
2023/06/28 07:46:12;;;;;;;1.67;0.90;;;;;;;21.40;53.88;101618.25;4989779;28;99464;-83
2023/06/28 07:48:38;;;;;;;4.27;1.07;;;;;;;21.51;53.38;101579.53;5001814;28;97530;-83
2023/06/28 07:51:05;;;;;;;1.67;0.80;;;;;;;21.59;53.30;101560.00;5000242;28;97259;-83
2023/06/28 07:53:33;;;;;;;1.57;0.77;;;;;;;21.71;52.88;101578.00;4987076;28;99616;-84
2023/06/28 07:55:59;;;;;;;2.30;0.97;;;;;;;21.77;52.59;101545.03;4991313;28;99022;-83
2023/06/28 07:58:24;;;;;;;2.60;0.70;;;;;;;21.82;52.48;101557.38;5002767;28;97593;-83
2023/06/28 08:00:52;;;;;;;1.57;0.70;;;;;;;21.85;52.41;101592.72;5001176;28;97612;-83
2023/06/28 08:03:19;;;;;;;2.00;0.80;;;;;;;21.88;52.21;101561.56;4986506;28;99327;-82
2023/06/28 08:05:45;;;;;;;1.30;0.80;;;;;;;21.92;52.25;101552.81;5002312;28;97025;-83
2023/06/28 08:08:10;;;;;;;0.90;0.80;;;;;;;21.95;51.98;101588.13;5002890;28;96959;-84
2023/06/28 08:10:35;;;;;;;3.70;0.97;;;;;;;22.03;51.75;101558.09;4987433;28;97626;-83
2023/06/28 08:13:01;;;;;;;3.20;0.97;;;;;;;22.14;51.44;101589.41;5004648;28;98516;-81
2023/06/28 08:15:26;;;;;;;2.03;1.00;;;;;;;22.17;51.20;101559.50;4991747;28;100262;-83
2023/06/28 08:17:51;;;;;;;2.93;0.93;;;;;;;22.26;51.11;101598.22;4982641;28;97138;-84
2023/06/28 08:20:17;;;;;;;5.30;1.30;;;;;;;22.31;50.95;101563.69;4990189;28;97005;-84
2023/06/28 08:22:43;;;;;;;1.70;0.90;;;;;;;22.37;50.88;101587.47;4992385;28;98920;-83
2023/06/28 08:25:13;;;;;;;1.90;0.63;;;;;;;22.48;50.42;101596.84;5004080;28;97367;-84
2023/06/28 08:27:40;;;;;;;1.97;1.03;;;;;;;22.51;50.44;101545.28;4998121;28;97580;-84
2023/06/28 08:30:06;;;;;;;1.00;0.60;;;;;;;22.73;50.18;101579.06;4997352;28;97049;-85
2023/06/28 08:32:35;;;;;;;1.07;0.60;;;;;;;22.83;50.06;101563.19;4998419;28;99943;-81
2023/06/28 08:35:05;;;;;;;2.90;1.40;;;;;;;22.77;49.67;101561.88;5007317;28;97410;-82
2023/06/28 08:37:32;;;;;;;1.33;0.80;;;;;;;22.73;49.60;101559.44;5002869;28;96620;-82
2023/06/28 08:39:57;;;;;;;2.30;1.10;;;;;;;22.78;49.42;101599.84;4991220;28;97175;-82
2023/06/28 08:42:23;;;;;;;1.60;0.83;;;;;;;22.72;49.45;101604.84;5005215;28;98819;-81
2023/06/28 08:44:51;;;;;;;2.20;1.17;;;;;;;22.75;49.29;101572.91;5001260;28;96816;-83
2023/06/28 08:47:19;;;;;;;0.93;0.83;;;;;;;22.94;49.19;101584.56;4993700;28;96850;-81
2023/06/28 08:49:45;;;;;;;1.23;0.80;;;;;;;23.06;48.98;101564.00;5000362;28;96891;-84
2023/06/28 08:52:12;;;;;;;2.20;0.90;;;;;;;23.22;48.62;101587.25;4996924;28;97032;-82
2023/06/28 08:54:38;;;;;;;1.27;0.77;;;;;;;23.25;48.40;101554.50;4987964;28;100399;-83
2023/06/28 08:57:04;;;;;;;3.27;0.90;;;;;;;23.38;48.13;101569.13;5002224;28;96766;-84
2023/06/28 08:59:30;;;;;;;2.00;0.77;;;;;;;23.51;47.83;101571.00;4985652;28;96945;-82
2023/06/28 09:01:59;;;;;;;1.63;0.70;;;;;;;23.66;47.67;101546.47;4983361;28;100891;-83
2023/06/28 09:04:26;;;;;;;1.07;0.73;;;;;;;23.77;47.18;101543.28;4986559;28;99148;-82
2023/06/28 09:06:52;;;;;;;1.17;0.70;;;;;;;23.97;46.73;101538.75;4987286;28;96754;-83
2023/06/28 09:09:19;;;;;;;2.20;1.10;;;;;;;23.99;46.61;101529.75;5000482;28;96787;-83
2023/06/28 09:11:44;;;;;;;3.23;1.07;;;;;;;24.04;46.46;101562.56;4999648;28;98174;-81
2023/06/28 09:14:11;;;;;;;2.00;0.77;;;;;;;24.11;46.50;101537.28;4988281;28;97580;-83
2023/06/28 09:16:36;;;;;;;1.30;0.90;;;;;;;24.22;45.99;101561.44;5003938;28;97307;-83
2023/06/28 09:19:02;;;;;;;1.37;0.90;;;;;;;24.38;45.64;101540.34;5009015;28;96937;-82
2023/06/28 09:21:28;;;;;;;1.40;1.10;;;;;;;24.46;45.63;101592.47;4986361;28;100386;-82
2023/06/28 09:23:54;;;;;;;1.10;0.70;;;;;;;24.53;45.02;101579.69;4983616;28;99659;-84
2023/06/28 09:26:21;;;;;;;1.47;1.00;;;;;;;24.51;44.60;101532.44;5004783;28;96840;-83
2023/06/28 09:28:46;;;;;;;2.60;0.70;;;;;;;24.61;44.66;101543.84;4989543;28;97016;-82
2023/06/28 09:31:18;;;;;;;2.30;0.70;;;;;;;24.73;43.32;101549.75;4989622;28;100347;-81
2023/06/28 09:33:43;;;;;;;2.90;1.07;;;;;;;24.74;44.14;101543.59;5005368;28;98930;-81
2023/06/28 09:36:10;;;;;;;2.30;1.20;;;;;;;24.84;44.11;101550.13;4984521;28;96741;-83
2023/06/28 09:38:42;;;;;;;1.23;1.00;;;;;;;24.94;43.80;101541.81;5005508;28;97269;-83
2023/06/28 09:41:07;;;;;;;1.67;0.90;;;;;;;25.12;44.03;101534.91;4993555;28;100441;-84
2023/06/28 09:43:34;;;;;;;1.43;0.97;;;;;;;25.19;43.40;101537.69;4992377;28;100416;-83
2023/06/28 09:46:14;;;;;;;1.00;0.70;;;;;;;25.08;42.41;101549.41;4999676;28;97146;-83
2023/06/28 09:48:45;;;;;;;1.33;0.80;;;;;;;24.89;43.33;101540.72;5004461;28;100322;-83
2023/06/28 09:51:11;;;;;;;2.30;0.90;;;;;;;24.75;43.87;101545.09;4979805;28;99475;-83
2023/06/28 09:53:49;;;;;;;3.67;1.10;;;;;;;24.79;42.76;101534.19;4997729;28;98664;-83
2023/06/28 09:56:16;;;;;;;1.10;0.90;;;;;;;25.03;43.79;101544.00;5002500;28;99604;-83
2023/06/28 09:58:45;;;;;;;3.23;1.30;;;;;;;25.24;43.16;101556.44;4989636;28;97015;-84
2023/06/28 10:01:10;;;;;;;3.63;0.97;;;;;;;25.31;43.20;101549.25;4988983;28;101405;-83
2023/06/28 10:03:38;;;;;;;1.60;1.03;;;;;;;25.27;42.92;101555.28;5000739;28;98472;-83
2023/06/28 10:06:06;;;;;;;1.90;1.00;;;;;;;25.09;43.10;101552.97;4987509;28;97073;-85
2023/06/28 10:08:32;;;;;;;2.27;0.97;;;;;;;25.07;43.08;101541.53;4983973;28;96700;-84
2023/06/28 10:10:58;;;;;;;2.57;1.10;;;;;;;25.28;43.06;101544.78;5006584;28;97917;-83
2023/06/28 10:13:26;;;;;;;1.37;0.93;;;;;;;25.45;42.88;101586.38;5004946;28;97748;-84
2023/06/28 10:16:03;;;;;;;2.90;1.10;;;;;;;25.73;42.22;101540.88;4992869;28;97361;-83
2023/06/28 10:18:29;;;;;;;1.30;0.97;;;;;;;25.77;42.52;101541.19;4989555;28;96957;-84
2023/06/28 10:20:54;;;;;;;3.90;0.93;;;;;;;25.99;42.03;101551.50;5007117;28;97991;-82
2023/06/28 10:23:21;;;;;;;1.23;0.77;;;;;;;26.03;41.43;101572.34;5005401;28;98965;-83
2023/06/28 10:25:46;;;;;;;2.13;0.80;;;;;;;26.07;41.73;101521.16;5001702;28;96737;-83
2023/06/28 10:28:15;;;;;;;2.10;0.93;;;;;;;25.95;41.33;101534.22;5000915;28;96785;-83
2023/06/28 10:30:42;;;;;;;1.43;0.70;;;;;;;25.84;41.72;101543.22;4987639;28;99613;-84
2023/06/28 10:33:09;;;;;;;1.53;0.87;;;;;;;25.58;42.39;101541.72;5001942;28;98200;-83
2023/06/28 10:35:36;;;;;;;2.57;1.30;;;;;;;25.42;42.26;101559.31;5004473;28;97590;-83
2023/06/28 10:38:02;;;;;;;0.80;0.63;;;;;;;25.48;42.28;101569.06;4985743;28;97862;-81
2023/06/28 10:40:28;;;;;;;2.50;1.10;;;;;;;25.62;42.05;101533.63;5005286;28;97513;-83
2023/06/28 10:42:53;;;;;;;1.37;0.77;;;;;;;25.73;42.23;101549.31;5002134;28;97132;-84
2023/06/28 10:45:35;;;;;;;1.10;0.80;;;;;;;25.95;39.84;101537.81;5004412;28;97429;-83
2023/06/28 10:48:02;;;;;;;1.20;0.87;;;;;;;26.04;41.36;101547.69;5003831;28;97232;-81
2023/06/28 10:50:27;;;;;;;0.97;0.70;;;;;;;26.12;41.10;101539.94;5004554;28;98758;-81
2023/06/28 10:52:55;;;;;;;2.40;0.93;;;;;;;26.15;41.01;101523.88;4993525;28;101510;-83
2023/06/28 10:55:56;;;;;;;3.90;1.40;;;;;;;26.12;40.24;101534.28;4999600;28;97051;-84
2023/06/28 10:58:26;;;;;;;1.37;0.73;;;;;;;26.02;40.88;101536.22;5002008;28;97238;-83
2023/06/28 11:00:52;;;;;;;2.20;0.93;;;;;;;25.95;41.34;101542.69;4988841;28;99181;-84
2023/06/28 11:03:18;;;;;;;0.80;0.63;;;;;;;25.83;41.21;101533.25;4991229;28;100866;-83
2023/06/28 11:05:54;;;;;;;1.43;0.80;;;;;;;25.86;40.77;101537.72;5003085;28;96973;-83
2023/06/28 11:08:21;;;;;;;1.50;0.90;;;;;;;26.02;41.28;101544.69;5005904;28;97004;-81
2023/06/28 11:10:58;;;;;;;1.67;0.90;;;;;;;26.09;40.36;101529.78;5001758;28;98303;-83
2023/06/28 11:13:39;;;;;;;2.07;1.13;;;;;;;26.27;40.47;101527.72;5004992;28;97822;-83
2023/06/28 11:16:13;;;;;;;1.90;0.93;;;;;;;26.49;40.50;101527.44;5003869;28;96862;-84
2023/06/28 11:18:38;;;;;;;2.60;1.07;;;;;;;26.54;40.71;101531.31;5006685;28;96826;-83
2023/06/28 11:21:12;;;;;;;1.20;1.10;;;;;;;26.65;40.71;101525.16;5001705;28;96851;-82
2023/06/28 11:23:39;;;;;;;0.87;0.83;;;;;;;26.63;40.43;101525.75;5005661;28;97766;-82
2023/06/28 11:26:06;;;;;;;1.60;1.10;;;;;;;26.51;40.32;101515.56;4986668;28;97083;-84
2023/06/28 11:28:34;;;;;;;3.10;1.27;;;;;;;26.46;40.69;101520.13;4997984;28;96905;-83
2023/06/28 11:31:18;;;;;;;1.73;1.03;;;;;;;26.42;39.49;101517.00;5000912;28;98126;-83
2023/06/28 11:33:44;;;;;;;1.63;1.00;;;;;;;26.36;40.39;101519.34;5000764;28;96678;-84
2023/06/28 11:36:12;;;;;;;2.40;1.17;;;;;;;26.33;40.19;101526.13;4999947;28;97017;-84
2023/06/28 11:38:38;;;;;;;1.90;0.97;;;;;;;26.29;40.21;101510.94;4986305;28;97431;-83
2023/06/28 11:41:04;;;;;;;4.93;1.10;;;;;;;26.32;40.31;101513.34;5004547;28;98701;-84
2023/06/28 11:43:30;;;;;;;1.37;0.77;;;;;;;26.28;40.09;101529.19;5000745;28;97798;-82
2023/06/28 11:45:55;;;;;;;2.70;1.20;;;;;;;26.17;40.37;101524.09;5000900;28;97385;-84
2023/06/28 11:48:21;;;;;;;2.20;1.50;;;;;;;26.11;40.64;101527.13;5002429;28;97080;-83
2023/06/28 11:51:00;;;;;;;2.80;1.20;;;;;;;26.10;39.91;101531.31;5004349;28;97952;-83
2023/06/28 11:53:27;;;;;;;2.40;1.00;;;;;;;26.13;40.66;101535.00;4998577;28;96903;-83
2023/06/28 11:55:54;;;;;;;1.80;1.10;;;;;;;26.11;40.92;101532.78;4993653;28;97177;-83
2023/06/28 11:58:33;;;;;;;2.23;1.10;;;;;;;26.14;40.63;101526.00;5004549;28;97220;-84
2023/06/28 12:01:00;;;;;;;1.90;1.00;;;;;;;26.27;40.76;101539.00;4991079;28;100378;-83
2023/06/28 12:03:36;;;;;;;1.60;1.23;;;;;;;26.34;40.08;101518.41;5003141;28;97311;-82
2023/06/28 12:06:09;;;;;;;1.30;1.07;;;;;;;26.31;40.23;101525.97;5003120;28;97352;-83
2023/06/28 12:08:37;;;;;;;7.90;1.63;;;;;;;26.28;40.55;101518.66;4985985;28;96720;-84
2023/06/28 12:11:12;;;;;;;1.67;0.90;;;;;;;26.26;39.70;101526.22;5006510;28;98424;-82
2023/06/28 12:13:39;;;;;;;0.90;0.73;;;;;;;26.28;40.79;101523.56;4993397;28;98930;-82
2023/06/28 12:16:12;;;;;;;1.73;1.20;;;;;;;26.53;39.84;101524.94;5003208;28;96643;-83
2023/06/28 12:18:57;;;;;;;2.77;0.90;;;;;;;26.84;39.42;101511.19;5000790;28;96772;-83
2023/06/28 12:21:28;;;;;;;0.80;0.70;;;;;;;26.84;39.65;101521.72;5001207;28;99096;-83